createdAt,value
2019-02-26T00:03:35.730Z,63.02
2019-02-26T00:06:04.196Z,62.91
2019-02-26T00:08:33.489Z,62.91
2019-02-26T00:11:03.746Z,62.86
2019-02-26T00:13:34.581Z,63.00
2019-02-26T00:16:44.583Z,63.08
2019-02-26T00:19:14.385Z,63.19
2019-02-26T00:21:45.200Z,63.27
2019-02-26T00:24:14.604Z,63.37
2019-02-26T00:26:45.114Z,63.28
2019-02-26T00:29:13.596Z,63.21
2019-02-26T00:31:43.406Z,63.34
2019-02-26T00:34:14.019Z,63.51
2019-02-26T00:36:42.275Z,63.67
2019-02-26T00:39:10.703Z,63.78
2019-02-26T00:41:40.339Z,63.77
2019-02-26T00:44:09.354Z,63.88
2019-02-26T00:46:39.469Z,63.80
2019-02-26T00:49:28.475Z,63.81
2019-02-26T00:54:31.867Z,63.90
2019-02-26T00:57:20.536Z,63.84
2019-02-26T00:59:48.930Z,63.71
2019-02-26T01:02:17.318Z,63.63
2019-02-26T01:04:46.764Z,63.60
2019-02-26T01:07:15.886Z,63.80
2019-02-26T01:09:44.282Z,63.79
2019-02-26T01:12:13.812Z,63.73
2019-02-26T01:14:44.178Z,63.60
2019-02-26T01:17:14.815Z,63.88
2019-02-26T01:19:43.154Z,64.07
2019-02-26T01:22:11.546Z,64.02
2019-02-26T01:24:39.942Z,64.12
2019-02-26T01:27:08.354Z,64.27
2019-02-26T01:29:36.755Z,64.18
2019-02-26T01:32:08.887Z,64.34
2019-02-26T01:34:35.307Z,64.56
2019-02-26T01:37:05.522Z,64.75
2019-02-26T01:39:35.624Z,64.72
2019-02-26T01:44:39.816Z,64.75
2019-02-26T01:47:08.074Z,64.67
2019-02-26T01:49:36.476Z,64.70
2019-02-26T01:52:06.288Z,64.76
2019-02-26T01:54:37.042Z,64.84
2019-02-26T01:57:27.230Z,64.75
2019-02-26T01:59:54.579Z,64.85
2019-02-26T02:02:25.387Z,64.81
2019-02-26T02:10:03.234Z,65.04
2019-02-26T02:15:46.590Z,65.07
2019-02-26T02:18:18.214Z,65.13
2019-02-26T02:20:58.520Z,64.97
2019-02-26T02:23:28.034Z,65.00
2019-02-26T02:25:59.720Z,64.92
2019-02-26T02:28:28.566Z,64.77
2019-02-26T02:30:57.263Z,64.81
2019-02-26T02:33:28.962Z,64.89
2019-02-26T02:38:30.457Z,64.87
2019-02-26T02:43:33.204Z,64.95
2019-02-26T02:46:21.021Z,64.94
2019-02-26T02:48:49.418Z,64.92
2019-02-26T02:51:17.816Z,64.89
2019-02-26T02:56:20.079Z,64.93
2019-02-26T03:01:24.504Z,64.89
2019-02-26T03:03:53.879Z,64.84
2019-02-26T03:06:24.269Z,64.89
2019-02-26T03:08:53.501Z,64.88
2019-02-26T03:11:22.719Z,64.85
2019-02-26T03:13:51.909Z,64.92
2019-02-26T03:16:21.992Z,64.93
2019-02-26T03:21:27.774Z,64.90
2019-02-26T03:26:31.722Z,64.95
2019-02-26T03:31:35.014Z,64.89
2019-02-26T03:34:25.392Z,64.84
2019-02-26T03:36:53.285Z,64.82
2019-02-26T03:39:21.686Z,64.76
2019-02-26T03:41:51.090Z,64.79
2019-02-26T03:44:20.253Z,64.79
2019-02-26T03:46:48.645Z,64.85
2019-02-26T03:49:20.053Z,64.87
2019-02-26T03:51:48.446Z,64.92
2019-02-26T03:54:16.838Z,64.93
2019-02-26T03:56:45.430Z,64.95
2019-02-26T03:59:13.843Z,64.97
2019-02-26T04:01:42.234Z,64.99
2019-02-26T04:04:10.721Z,65.01
2019-02-26T04:06:41.156Z,65.02
2019-02-26T04:09:11.170Z,65.03
2019-02-26T04:11:44.777Z,65.10
2019-02-26T04:14:12.672Z,65.09
2019-02-26T04:16:41.117Z,65.09
2019-02-26T04:19:10.193Z,65.04
2019-02-26T04:22:15.817Z,65.12
2019-02-26T04:24:45.100Z,65.21
2019-02-26T04:27:41.221Z,65.06
2019-02-26T04:30:34.063Z,65.18
2019-02-26T04:33:22.843Z,65.10
2019-02-26T04:36:02.877Z,65.04
2019-02-26T04:38:36.886Z,65.04
2019-02-26T04:41:06.862Z,65.07
2019-02-26T04:44:06.241Z,65.11
2019-02-26T04:46:40.625Z,65.07
2019-02-26T04:49:09.022Z,64.95
2019-02-26T04:51:39.889Z,64.89
2019-02-26T04:54:08.374Z,64.97
2019-02-26T04:56:39.583Z,64.96
2019-02-26T04:59:09.379Z,65.03
2019-02-26T05:01:37.277Z,65.07
2019-02-26T05:04:05.681Z,65.10
2019-02-26T05:06:34.329Z,65.16
2019-02-26T05:09:05.457Z,65.20
2019-02-26T05:11:37.122Z,65.21
2019-02-26T05:14:03.706Z,65.17
2019-02-26T05:16:34.730Z,65.21
2019-02-26T05:19:02.380Z,65.21
2019-02-26T05:21:33.266Z,65.22
2019-02-26T05:24:02.970Z,65.20
2019-02-26T05:26:31.162Z,65.25
2019-02-26T05:28:59.575Z,65.31
2019-02-26T05:31:29.762Z,65.34
2019-02-26T05:34:00.063Z,65.35
2019-02-26T05:36:28.582Z,65.35
2019-02-26T05:39:00.371Z,65.31
2019-02-26T05:41:28.527Z,65.25
2019-02-26T05:43:58.275Z,65.27
2019-02-26T05:46:29.449Z,65.32
2019-02-26T05:48:57.241Z,65.30
2019-02-26T05:51:27.458Z,65.28
2019-02-26T05:53:55.945Z,65.31
2019-02-26T05:56:24.348Z,65.22
2019-02-26T05:58:52.774Z,65.27
2019-02-26T06:01:22.494Z,65.22
2019-02-26T06:03:51.881Z,65.24
2019-02-26T06:06:20.483Z,65.23
2019-02-26T06:08:48.877Z,65.27
2019-02-26T06:11:17.292Z,65.31
2019-02-26T06:13:45.841Z,65.39
2019-02-26T06:16:14.232Z,65.41
2019-02-26T06:18:44.006Z,65.34
2019-02-26T06:21:13.792Z,65.27
2019-02-26T06:23:45.671Z,65.21
2019-02-26T06:26:16.743Z,65.18
2019-02-26T06:28:48.024Z,65.07
2019-02-26T06:31:17.582Z,64.98
2019-02-26T06:33:47.761Z,64.86
2019-02-26T06:36:18.610Z,64.75
2019-02-26T06:38:49.601Z,64.71
2019-02-26T06:41:16.962Z,64.67
2019-02-26T06:43:48.360Z,64.65
2019-02-26T06:46:15.512Z,64.63
2019-02-26T06:48:46.809Z,64.60
2019-02-26T06:51:15.772Z,64.58
2019-02-26T06:53:47.144Z,64.52
2019-02-26T06:56:16.034Z,64.39
2019-02-26T06:58:44.996Z,64.33
2019-02-26T07:01:14.746Z,64.22
2019-02-26T07:03:44.242Z,64.15
2019-02-26T07:06:12.659Z,64.02
2019-02-26T07:08:42.112Z,63.86
2019-02-26T07:11:11.164Z,63.63
2019-02-26T07:13:41.257Z,63.39
2019-02-26T07:16:09.817Z,63.21
2019-02-26T07:18:38.679Z,62.92
2019-02-26T07:21:07.125Z,62.62
2019-02-26T07:23:37.610Z,62.36
2019-02-26T07:26:05.633Z,62.21
2019-02-26T07:28:34.182Z,62.04
2019-02-26T07:31:03.293Z,61.91
2019-02-26T07:33:34.701Z,61.78
2019-02-26T07:36:04.175Z,61.59
2019-02-26T07:38:40.983Z,61.49
2019-02-26T07:41:03.783Z,61.40
2019-02-26T07:43:36.635Z,61.25
2019-02-26T07:46:03.059Z,61.15
2019-02-26T07:48:33.567Z,61.08
2019-02-26T07:51:01.618Z,61.05
2019-02-26T07:53:30.105Z,61.04
2019-02-26T07:55:59.587Z,60.92
2019-02-26T07:58:30.900Z,60.73
2019-02-26T08:00:58.818Z,60.61
2019-02-26T08:03:29.295Z,60.61
2019-02-26T08:05:59.280Z,60.54
2019-02-26T08:08:27.518Z,60.41
2019-02-26T08:10:55.973Z,60.21
2019-02-26T08:13:28.543Z,60.02
2019-02-26T08:15:55.842Z,59.89
2019-02-26T08:18:24.876Z,59.78
2019-02-26T08:20:56.869Z,59.64
2019-02-26T08:23:24.535Z,59.47
2019-02-26T08:25:55.486Z,59.39
2019-02-26T08:28:24.894Z,59.22
2019-02-26T08:30:55.224Z,59.13
2019-02-26T08:33:23.588Z,58.99
2019-02-26T08:35:55.522Z,58.88
2019-02-26T08:38:22.258Z,58.72
2019-02-26T08:40:50.702Z,58.61
2019-02-26T08:43:19.204Z,58.48
2019-02-26T08:45:49.272Z,58.37
2019-02-26T08:48:19.699Z,58.24
2019-02-26T08:50:47.962Z,57.99
2019-02-26T08:53:16.359Z,57.71
2019-02-26T08:55:44.762Z,57.53
2019-02-26T08:58:13.370Z,57.45
2019-02-26T09:00:41.763Z,57.29
2019-02-26T09:03:10.837Z,57.03
2019-02-26T09:05:40.309Z,56.83
2019-02-26T09:08:10.885Z,56.76
2019-02-26T09:10:41.159Z,56.59
2019-02-26T09:13:11.338Z,56.44
2019-02-26T09:15:41.386Z,56.21
2019-02-26T09:18:09.475Z,55.98
2019-02-26T09:20:38.093Z,55.71
2019-02-26T09:23:06.554Z,55.36
2019-02-26T09:25:34.956Z,55.06
2019-02-26T09:28:03.536Z,54.78
2019-02-26T09:30:33.940Z,54.49
2019-02-26T09:33:03.428Z,54.36
2019-02-26T09:35:33.129Z,54.24
2019-02-26T09:38:01.598Z,54.35
2019-02-26T09:40:33.445Z,54.26
2019-02-26T09:43:00.306Z,54.08
2019-02-26T09:45:30.180Z,53.90
2019-02-26T09:48:01.006Z,53.71
2019-02-26T09:50:28.840Z,53.52
2019-02-26T09:52:59.114Z,53.37
2019-02-26T09:55:27.425Z,53.14
2019-02-26T09:57:55.968Z,52.82
2019-02-26T10:00:27.186Z,52.42
2019-02-26T10:02:54.529Z,52.07
2019-02-26T10:05:23.336Z,51.90
2019-02-26T10:07:54.353Z,51.61
2019-02-26T10:10:25.347Z,51.26
2019-02-26T10:12:55.904Z,51.13
2019-02-26T10:15:23.709Z,51.25
2019-02-26T10:17:52.110Z,51.22
2019-02-26T10:20:26.194Z,51.04
2019-02-26T10:22:57.217Z,50.63
2019-02-26T10:25:27.943Z,50.31
2019-02-26T10:27:54.875Z,50.15
2019-02-26T10:30:23.362Z,50.13
2019-02-26T10:32:51.898Z,50.00
2019-02-26T10:35:32.609Z,49.79
2019-02-26T10:38:02.161Z,49.54
2019-02-26T10:40:35.076Z,49.44
2019-02-26T10:42:58.920Z,49.32
2019-02-26T10:45:36.101Z,49.09
2019-02-26T10:48:01.952Z,48.65
2019-02-26T10:50:31.863Z,48.42
2019-02-26T10:53:07.225Z,48.27
2019-02-26T10:55:38.058Z,48.09
2019-02-26T10:58:04.674Z,48.06
2019-02-26T11:00:34.634Z,47.72
2019-02-26T11:03:01.741Z,47.48
2019-02-26T11:05:30.305Z,47.30
2019-02-26T11:08:01.869Z,46.96
2019-02-26T11:10:30.445Z,46.92
2019-02-26T11:12:59.775Z,47.00
2019-02-26T11:15:31.088Z,46.96
2019-02-26T11:17:58.645Z,47.07
2019-02-26T11:20:30.002Z,47.04
2019-02-26T11:22:57.198Z,47.05
2019-02-26T11:25:27.384Z,47.16
2019-02-26T11:27:55.812Z,47.10
2019-02-26T11:30:29.071Z,46.93
2019-02-26T11:32:58.598Z,46.90
2019-02-26T11:35:27.445Z,46.84
2019-02-26T11:37:57.733Z,46.68
2019-02-26T11:40:28.209Z,46.39
2019-02-26T11:42:59.615Z,46.29
2019-02-26T11:45:27.351Z,46.16
2019-02-26T11:47:58.007Z,45.80
2019-02-26T11:50:28.051Z,45.45
2019-02-26T11:52:57.026Z,44.79
2019-02-26T11:55:26.917Z,44.41
2019-02-26T11:57:55.795Z,44.08
2019-02-26T12:00:50.414Z,43.73
2019-02-26T12:03:18.188Z,43.27
2019-02-26T12:05:46.610Z,43.24
2019-02-26T12:08:17.397Z,42.56
2019-02-26T12:10:45.192Z,42.24
2019-02-26T12:13:14.661Z,42.14
2019-02-26T12:15:44.320Z,41.71
2019-02-26T12:18:14.949Z,41.35
2019-02-26T12:20:43.596Z,41.03
2019-02-26T12:23:15.979Z,40.89
2019-02-26T12:25:43.214Z,40.81
2019-02-26T12:28:13.645Z,40.90
2019-02-26T12:30:43.909Z,40.52
2019-02-26T12:33:14.323Z,40.23
2019-02-26T12:35:43.654Z,40.32
2019-02-26T12:38:18.163Z,40.63
2019-02-26T12:40:44.688Z,40.86
2019-02-26T12:43:16.311Z,40.87
2019-02-26T12:45:43.056Z,40.90
2019-02-26T12:48:15.620Z,40.81
2019-02-26T12:50:41.592Z,40.50
2019-02-26T12:53:12.710Z,40.17
2019-02-26T12:55:42.301Z,40.15
2019-02-26T12:58:11.284Z,40.27
2019-02-26T13:00:42.170Z,40.39
2019-02-26T13:03:12.833Z,40.17
2019-02-26T13:05:42.460Z,39.78
2019-02-26T13:08:13.407Z,39.70
2019-02-26T13:10:43.534Z,39.60
2019-02-26T13:13:11.601Z,39.66
2019-02-26T13:15:40.031Z,39.52
2019-02-26T13:18:08.440Z,39.07
2019-02-26T13:20:36.843Z,39.07
2019-02-26T13:23:17.033Z,39.35
2019-02-26T13:25:35.549Z,39.87
2019-02-26T13:28:04.038Z,39.75
2019-02-26T13:30:32.464Z,39.66
2019-02-26T13:33:04.985Z,39.49
2019-02-26T13:35:31.032Z,39.44
2019-02-26T13:38:01.592Z,39.34
2019-02-26T13:40:37.899Z,39.51
2019-02-26T13:45:29.524Z,39.74
2019-02-26T13:48:01.326Z,39.49
2019-02-26T13:50:33.817Z,38.88
2019-02-26T13:53:02.215Z,38.68
2019-02-26T13:55:30.751Z,38.71
2019-02-26T13:57:59.409Z,38.49
2019-02-26T14:00:27.881Z,38.05
2019-02-26T14:02:56.284Z,37.53
2019-02-26T14:05:24.719Z,37.20
2019-02-26T14:07:54.034Z,37.10
2019-02-26T14:10:26.013Z,36.66
2019-02-26T14:12:54.422Z,36.25
2019-02-26T14:15:24.447Z,36.34
2019-02-26T14:17:53.306Z,36.34
2019-02-26T14:20:21.886Z,36.41
2019-02-26T14:22:50.278Z,36.53
2019-02-26T14:25:18.807Z,36.56
2019-02-26T14:27:47.221Z,36.12
2019-02-26T14:30:19.789Z,36.58
2019-02-26T14:32:48.545Z,36.82
2019-02-26T14:35:17.084Z,37.14
2019-02-26T14:37:45.550Z,37.22
2019-02-26T14:40:18.778Z,37.08
2019-02-26T14:42:47.515Z,37.01
2019-02-26T14:45:20.254Z,36.97
2019-02-26T14:47:48.741Z,36.74
2019-02-26T14:50:21.647Z,36.53
2019-02-26T14:52:50.114Z,36.68
2019-02-26T14:55:18.942Z,36.74
2019-02-26T14:57:47.344Z,36.57
2019-02-26T15:00:21.098Z,36.44
2019-02-26T15:02:49.819Z,36.36
2019-02-26T15:05:18.218Z,36.23
2019-02-26T15:07:46.634Z,35.73
2019-02-26T15:10:15.793Z,35.64
2019-02-26T15:12:44.188Z,35.69
2019-02-26T15:15:15.126Z,35.92
2019-02-26T15:17:43.975Z,35.85
2019-02-26T15:20:14.606Z,35.90
2019-02-26T15:22:43.003Z,35.90
2019-02-26T15:25:17.122Z,35.94
2019-02-26T15:27:45.513Z,36.34
2019-02-26T15:30:16.355Z,36.91
2019-02-26T15:32:44.971Z,37.07
2019-02-26T15:35:13.909Z,36.94
2019-02-26T15:37:42.488Z,36.79
2019-02-26T15:40:15.551Z,36.43
2019-02-26T15:42:43.953Z,36.00
2019-02-26T15:45:20.907Z,35.78
2019-02-26T15:47:50.122Z,35.97
2019-02-26T15:50:20.335Z,35.97
2019-02-26T15:52:52.715Z,35.97
2019-02-26T15:55:25.913Z,36.16
2019-02-26T15:57:55.005Z,36.54
2019-02-26T16:00:24.705Z,36.68
2019-02-26T16:02:53.837Z,37.13
2019-02-26T16:05:27.731Z,37.66
2019-02-26T16:07:56.131Z,38.01
2019-02-26T16:10:24.529Z,38.25
2019-02-26T16:12:52.966Z,38.57
2019-02-26T16:15:21.378Z,38.90
2019-02-26T16:17:49.915Z,39.03
2019-02-26T16:20:19.896Z,39.17
2019-02-26T16:22:48.366Z,39.32
2019-02-26T16:25:16.928Z,39.61
2019-02-26T16:27:45.329Z,39.92
2019-02-26T16:30:17.017Z,40.11
2019-02-26T16:32:45.579Z,40.30
2019-02-26T16:35:15.109Z,40.43
2019-02-26T16:37:57.727Z,40.71
2019-02-26T16:40:32.420Z,41.14
2019-02-26T16:43:00.911Z,41.50
2019-02-26T16:45:34.304Z,41.84
2019-02-26T16:47:59.841Z,42.25
2019-02-26T16:50:30.481Z,42.59
2019-02-26T16:53:00.450Z,42.99
2019-02-26T16:55:29.350Z,43.35
2019-02-26T16:58:02.123Z,43.62
2019-02-26T17:00:29.395Z,43.80
2019-02-26T17:03:00.797Z,43.97
2019-02-26T17:05:28.130Z,44.23
2019-02-26T17:07:56.891Z,44.37
2019-02-26T17:10:29.083Z,44.61
2019-02-26T17:12:56.649Z,44.84
2019-02-26T17:15:32.002Z,44.85
2019-02-26T17:18:00.462Z,44.93
2019-02-26T17:20:28.945Z,45.11
2019-02-26T17:22:57.462Z,44.71
2019-02-26T17:25:28.611Z,44.39
2019-02-26T17:27:56.295Z,44.01
2019-02-26T17:30:24.873Z,43.86
2019-02-26T17:32:53.546Z,43.86
2019-02-26T17:35:22.170Z,43.93
2019-02-26T17:37:50.867Z,43.98
2019-02-26T17:40:23.410Z,44.03
2019-02-26T17:42:51.948Z,44.01
2019-02-26T17:45:25.282Z,44.10
2019-02-26T17:47:56.561Z,44.07
2019-02-26T17:50:38.260Z,44.10
2019-02-26T17:53:07.003Z,44.12
2019-02-26T17:55:35.620Z,44.18
2019-02-26T17:58:04.237Z,44.54
2019-02-26T18:00:37.309Z,44.90
2019-02-26T18:03:07.237Z,44.85
2019-02-26T18:05:39.360Z,44.74
2019-02-26T18:08:06.182Z,44.78
2019-02-26T18:10:36.577Z,44.76
2019-02-26T18:13:05.078Z,44.75
2019-02-26T18:15:33.547Z,44.90
2019-02-26T18:18:01.959Z,45.09
2019-02-26T18:20:30.563Z,45.32
2019-02-26T18:23:00.155Z,45.54
2019-02-26T18:25:29.329Z,45.63
2019-02-26T18:27:57.750Z,45.76
2019-02-26T18:30:30.209Z,45.83
2019-02-26T18:33:01.156Z,46.05
2019-02-26T18:35:29.672Z,46.41
2019-02-26T18:37:58.083Z,46.75
2019-02-26T18:40:28.281Z,47.09
2019-02-26T18:42:56.767Z,47.28
2019-02-26T18:45:45.955Z,47.29
2019-02-26T18:48:15.704Z,47.33
2019-02-26T18:50:53.780Z,47.37
2019-02-26T18:53:22.284Z,47.60
2019-02-26T18:55:50.685Z,47.60
2019-02-26T18:58:20.582Z,47.59
2019-02-26T19:00:49.011Z,47.65
2019-02-26T19:03:17.405Z,47.77
2019-02-26T19:05:45.813Z,47.91
2019-02-26T19:08:14.243Z,48.07
2019-02-26T19:10:42.646Z,48.15
2019-02-26T19:13:11.047Z,48.17
2019-02-26T19:15:39.493Z,48.26
2019-02-26T19:18:07.963Z,48.36
2019-02-26T19:20:37.995Z,48.51
2019-02-26T19:23:06.496Z,48.69
2019-02-26T19:25:35.059Z,48.90
2019-02-26T19:28:03.560Z,48.99
2019-02-26T19:30:32.332Z,49.31
2019-02-26T19:33:03.495Z,49.71
2019-02-26T19:35:34.811Z,50.09
2019-02-26T19:38:03.879Z,50.48
2019-02-26T19:40:41.224Z,50.62
2019-02-26T19:43:09.927Z,50.65
2019-02-26T19:45:38.417Z,50.60
2019-02-26T19:48:06.812Z,50.64
2019-02-26T19:50:35.269Z,50.81
2019-02-26T19:53:03.672Z,50.98
2019-02-26T19:55:40.415Z,51.06
2019-02-26T19:58:09.078Z,51.25
2019-02-26T20:00:37.621Z,51.36
2019-02-26T20:03:06.280Z,51.53
2019-02-26T20:05:34.775Z,51.87
2019-02-26T20:08:05.233Z,52.19
2019-02-26T20:10:33.423Z,52.21
2019-02-26T20:13:03.897Z,52.34
2019-02-26T20:15:31.951Z,52.58
2019-02-26T20:18:00.511Z,52.77
2019-02-26T20:20:28.915Z,52.83
2019-02-26T20:22:57.315Z,52.87
2019-02-26T20:25:26.278Z,52.76
2019-02-26T20:27:57.965Z,52.62
2019-02-26T20:30:25.115Z,52.66
2019-02-26T20:32:53.629Z,52.54
2019-02-26T20:35:22.016Z,52.52
2019-02-26T20:37:50.473Z,52.47
2019-02-26T20:40:25.567Z,52.41
2019-02-26T20:42:53.958Z,52.16
2019-02-26T20:45:22.846Z,52.03
2019-02-26T20:47:51.342Z,52.06
2019-02-26T20:50:21.109Z,51.91
2019-02-26T20:52:49.880Z,51.89
2019-02-26T20:55:23.879Z,51.76
2019-02-26T20:57:52.283Z,51.68
2019-02-26T21:00:24.998Z,51.61
2019-02-26T21:02:51.392Z,51.53
2019-02-26T21:05:19.874Z,51.42
2019-02-26T21:07:49.634Z,51.33
2019-02-26T21:10:19.528Z,51.38
2019-02-26T21:12:47.929Z,51.39
2019-02-26T21:15:21.715Z,51.55
2019-02-26T21:17:50.135Z,51.41
2019-02-26T21:20:18.530Z,51.32
2019-02-26T21:22:46.985Z,51.51
2019-02-26T21:25:15.946Z,51.62
2019-02-26T21:27:44.407Z,51.61
2019-02-26T21:30:20.293Z,51.65
2019-02-26T21:32:52.125Z,51.83
2019-02-26T21:35:21.386Z,51.86
2019-02-26T21:37:49.932Z,51.92
2019-02-26T21:40:18.354Z,52.11
2019-02-26T21:42:46.813Z,52.30
2019-02-26T21:45:19.605Z,52.37
2019-02-26T21:47:48.844Z,52.50
2019-02-26T21:50:17.306Z,52.43
2019-02-26T21:52:59.191Z,52.44
2019-02-26T21:55:17.672Z,52.36
2019-02-26T21:57:46.342Z,52.36
2019-02-26T22:00:17.859Z,52.45
2019-02-26T22:02:46.619Z,52.49
2019-02-26T22:05:15.079Z,52.62
2019-02-26T22:07:43.469Z,52.84
2019-02-26T22:10:14.519Z,52.95
2019-02-26T22:12:43.176Z,52.82
2019-02-26T22:15:14.224Z,52.83
2019-02-26T22:17:42.750Z,52.80
2019-02-26T22:20:22.057Z,52.74
2019-02-26T22:22:43.900Z,52.68
2019-02-26T22:25:16.944Z,52.58
2019-02-26T22:27:43.603Z,52.63
2019-02-26T22:30:21.548Z,52.65
2019-02-26T22:32:47.825Z,52.69
2019-02-26T22:35:16.497Z,52.59
2019-02-26T22:37:44.875Z,52.67
2019-02-26T22:40:14.549Z,52.65
2019-02-26T22:42:43.187Z,52.59
2019-02-26T22:45:14.160Z,52.46
2019-02-26T22:47:44.032Z,52.45
2019-02-26T22:50:14.895Z,52.32
2019-02-26T22:52:43.449Z,52.25
2019-02-26T22:55:16.510Z,52.23
2019-02-26T22:57:44.144Z,52.51
2019-02-26T23:00:48.396Z,52.73
2019-02-26T23:03:14.343Z,52.87
2019-02-26T23:05:42.980Z,52.86
2019-02-26T23:08:12.470Z,52.98
2019-02-26T23:10:41.400Z,52.96
2019-02-26T23:13:09.938Z,52.78
2019-02-26T23:15:38.364Z,52.68
2019-02-26T23:18:07.700Z,52.70
2019-02-26T23:20:36.779Z,52.77
2019-02-26T23:23:05.359Z,52.82
2019-02-26T23:25:35.940Z,52.93
2019-02-26T23:28:04.775Z,53.02
2019-02-26T23:30:33.267Z,53.04
2019-02-26T23:33:01.727Z,53.24
2019-02-26T23:35:30.191Z,53.59
2019-02-26T23:37:58.850Z,53.79
2019-02-26T23:40:28.106Z,53.80
2019-02-26T23:42:56.792Z,53.93
2019-02-26T23:45:25.500Z,54.14
2019-02-26T23:47:53.923Z,54.32
2019-02-26T23:50:22.304Z,54.43
2019-02-26T23:52:50.723Z,54.40
2019-02-26T23:55:19.103Z,54.39
2019-02-26T23:57:47.534Z,54.24
